createdAt,value
2022-09-03T00:02:22.701Z,4.32
2022-09-03T00:05:14.890Z,4.50
2022-09-03T00:08:21.097Z,4.13
2022-09-03T00:11:08.280Z,4.18
2022-09-03T00:13:39.973Z,3.97
2022-09-03T00:16:13.076Z,4.20
2022-09-03T00:18:51.382Z,3.72
2022-09-03T00:21:31.159Z,4.05
2022-09-03T00:24:03.457Z,3.85
2022-09-03T00:26:35.506Z,3.58
2022-09-03T00:29:14.133Z,3.80
2022-09-03T00:31:47.832Z,3.42
2022-09-03T00:34:32.706Z,3.67
2022-09-03T00:37:00.040Z,3.28
2022-09-03T00:39:28.623Z,3.25
2022-09-03T00:42:08.263Z,3.58
2022-09-03T00:45:13.058Z,3.50
2022-09-03T00:48:01.289Z,3.58
2022-09-03T00:51:05.303Z,3.58
2022-09-03T00:53:52.418Z,3.83
2022-09-03T00:56:23.836Z,3.65
2022-09-03T00:59:24.875Z,3.97
2022-09-03T01:01:52.499Z,4.40
2022-09-03T01:04:34.182Z,3.85
2022-09-03T01:10:00.341Z,4.00
2022-09-03T01:12:47.133Z,3.90
2022-09-03T01:15:36.016Z,4.25
2022-09-03T01:18:12.284Z,3.88
2022-09-03T01:20:51.728Z,3.90
2022-09-03T01:23:37.636Z,4.60
2022-09-03T01:26:11.532Z,4.30
2022-09-03T01:28:42.461Z,4.13
2022-09-03T01:31:33.955Z,4.30
2022-09-03T01:34:19.785Z,4.00
2022-09-03T01:37:15.887Z,3.70
2022-09-03T01:39:52.784Z,3.97
2022-09-03T01:42:42.511Z,4.63
2022-09-03T01:45:51.704Z,4.07
2022-09-03T01:48:26.092Z,3.70
2022-09-03T01:51:13.313Z,4.15
2022-09-03T01:54:21.157Z,3.90
2022-09-03T01:56:51.733Z,3.92
2022-09-03T01:59:32.025Z,3.80
2022-09-03T02:02:23.563Z,3.85
2022-09-03T02:08:01.555Z,4.10
2022-09-03T02:10:30.527Z,3.78
2022-09-03T02:13:05.330Z,3.63
2022-09-03T02:15:34.935Z,3.95
2022-09-03T02:18:06.517Z,3.92
2022-09-03T02:23:01.448Z,4.10
2022-09-03T02:25:37.457Z,3.97
2022-09-03T02:28:17.254Z,4.28
2022-09-03T02:30:45.898Z,3.80
2022-09-03T02:33:13.485Z,3.95
2022-09-03T02:35:41.859Z,4.32
2022-09-03T02:38:18.447Z,4.40
2022-09-03T02:40:46.114Z,4.25
2022-09-03T02:43:46.457Z,4.47
2022-09-03T02:46:38.066Z,8.90
2022-09-03T02:49:05.647Z,6.30
2022-09-03T02:51:38.042Z,4.38
2022-09-03T02:54:05.534Z,4.80
2022-09-03T02:56:33.041Z,4.45
2022-09-03T02:59:00.741Z,4.30
2022-09-03T03:01:28.018Z,4.35
2022-09-03T03:03:55.593Z,4.43
2022-09-03T03:06:23.030Z,4.15
2022-09-03T03:08:51.274Z,4.25
2022-09-03T03:11:20.128Z,4.90
2022-09-03T03:13:47.719Z,4.80
2022-09-03T03:16:17.091Z,5.25
2022-09-03T03:18:47.995Z,5.05
2022-09-03T03:21:17.827Z,4.75
2022-09-03T03:23:45.577Z,4.53
2022-09-03T03:26:19.712Z,4.45
2022-09-03T03:28:49.102Z,5.05
2022-09-03T03:31:19.127Z,5.05
2022-09-03T03:33:55.312Z,5.07
2022-09-03T03:36:24.284Z,4.68
2022-09-03T03:38:55.114Z,4.90
2022-09-03T03:41:25.460Z,4.40
2022-09-03T03:43:56.905Z,4.60
2022-09-03T03:46:25.893Z,5.10
2022-09-03T03:48:53.298Z,4.65
2022-09-03T03:51:20.858Z,5.13
2022-09-03T03:53:48.108Z,4.70
2022-09-03T03:56:17.050Z,4.95
2022-09-03T03:58:44.454Z,4.90
2022-09-03T04:01:22.876Z,5.30
2022-09-03T04:03:50.949Z,5.70
2022-09-03T04:06:20.014Z,5.60
2022-09-03T04:08:49.999Z,5.47
2022-09-03T04:11:20.946Z,5.55
2022-09-03T04:13:49.095Z,5.88
2022-09-03T04:16:18.705Z,5.93
2022-09-03T04:18:48.234Z,5.72
2022-09-03T04:21:28.541Z,5.30
2022-09-03T04:23:57.272Z,5.90
2022-09-03T04:26:32.910Z,5.45
2022-09-03T04:29:03.105Z,5.70
2022-09-03T04:31:32.301Z,5.65
2022-09-03T04:34:00.144Z,5.47
2022-09-03T04:36:29.910Z,6.00
2022-09-03T04:39:00.758Z,5.70
2022-09-03T04:41:30.523Z,5.70
2022-09-03T04:43:59.327Z,6.00
2022-09-03T04:46:33.480Z,6.30
2022-09-03T04:49:02.145Z,5.78
2022-09-03T04:51:32.807Z,6.95
2022-09-03T04:54:02.717Z,6.13
2022-09-03T04:56:35.139Z,6.20
2022-09-03T04:59:05.885Z,6.45
2022-09-03T05:01:35.199Z,6.28
2022-09-03T05:04:03.142Z,6.30
2022-09-03T05:06:31.762Z,6.57
2022-09-03T05:09:00.151Z,5.88
2022-09-03T05:11:28.438Z,7.00
2022-09-03T05:13:57.888Z,9.60
2022-09-03T05:16:28.385Z,10.75
2022-09-03T05:18:59.882Z,10.87
2022-09-03T05:21:28.817Z,12.80
2022-09-03T05:23:56.185Z,9.75
2022-09-03T05:26:29.333Z,7.57
2022-09-03T05:28:59.867Z,7.43
2022-09-03T05:31:30.398Z,7.45
2022-09-03T05:34:01.524Z,7.45
2022-09-03T05:36:31.134Z,7.32
2022-09-03T05:38:59.543Z,7.82
2022-09-03T05:41:27.954Z,6.70
2022-09-03T05:43:59.108Z,8.02
2022-09-03T05:46:34.477Z,7.38
2022-09-03T05:49:03.182Z,8.80
2022-09-03T05:51:31.729Z,8.38
2022-09-03T05:53:59.657Z,8.30
2022-09-03T05:56:29.125Z,7.80
2022-09-03T05:59:05.750Z,7.78
2022-09-03T06:01:36.206Z,7.10
2022-09-03T06:04:09.745Z,7.32
2022-09-03T06:06:39.631Z,8.27
2022-09-03T06:09:09.380Z,6.60
2022-09-03T06:11:38.622Z,7.00
2022-09-03T06:14:08.751Z,7.15
2022-09-03T06:16:41.794Z,7.85
2022-09-03T06:19:11.003Z,7.53
2022-09-03T06:21:45.414Z,7.10
2022-09-03T06:24:16.555Z,7.35
2022-09-03T06:26:48.468Z,8.18
2022-09-03T06:29:16.037Z,7.07
2022-09-03T06:31:43.405Z,7.20
2022-09-03T06:34:10.991Z,6.65
2022-09-03T06:36:41.385Z,6.45
2022-09-03T06:39:11.729Z,5.85
2022-09-03T06:41:40.244Z,6.25
2022-09-03T06:44:12.146Z,8.80
2022-09-03T06:46:44.169Z,7.55
2022-09-03T06:49:12.579Z,6.63
2022-09-03T06:51:40.590Z,6.50
2022-09-03T06:54:10.605Z,6.72
2022-09-03T06:56:41.235Z,6.70
2022-09-03T06:59:14.291Z,6.90
2022-09-03T07:01:45.404Z,6.63
2022-09-03T07:06:44.539Z,7.03
2022-09-03T07:09:13.032Z,6.47
2022-09-03T07:11:47.823Z,6.65
2022-09-03T07:14:18.042Z,6.57
2022-09-03T07:16:46.383Z,5.25
2022-09-03T07:19:14.239Z,5.55
2022-09-03T07:21:46.764Z,6.40
2022-09-03T07:24:17.659Z,5.70
2022-09-03T07:26:46.615Z,6.68
2022-09-03T07:29:16.152Z,5.63
2022-09-03T07:31:44.564Z,5.45
2022-09-03T07:34:14.065Z,5.40
2022-09-03T07:36:48.962Z,5.38
2022-09-03T07:39:18.097Z,6.05
2022-09-03T07:41:46.947Z,5.50
2022-09-03T07:44:16.476Z,5.05
2022-09-03T07:46:46.268Z,5.68
2022-09-03T07:49:14.167Z,5.70
2022-09-03T07:51:41.537Z,5.20
2022-09-03T07:54:11.569Z,5.50
2022-09-03T07:56:40.647Z,4.93
2022-09-03T07:59:09.732Z,4.57
2022-09-03T08:01:41.793Z,4.50
2022-09-03T08:04:11.120Z,4.68
2022-09-03T08:06:39.797Z,5.00
2022-09-03T08:09:10.061Z,5.10
2022-09-03T08:11:39.727Z,4.72
2022-09-03T08:14:10.124Z,4.50
2022-09-03T08:16:40.271Z,4.43
2022-09-03T08:19:08.022Z,4.35
2022-09-03T08:21:36.654Z,4.20
2022-09-03T08:24:04.535Z,4.60
2022-09-03T08:26:34.904Z,6.35
2022-09-03T08:29:02.505Z,4.80
2022-09-03T08:31:30.787Z,3.95
2022-09-03T08:33:59.689Z,3.75
2022-09-03T08:36:32.288Z,4.40
2022-09-03T08:39:04.558Z,4.18
2022-09-03T08:41:47.176Z,4.18
2022-09-03T08:44:26.380Z,5.03
2022-09-03T08:47:02.313Z,4.50
2022-09-03T08:49:35.614Z,3.80
2022-09-03T08:52:08.165Z,4.10
2022-09-03T08:54:36.618Z,4.68
2022-09-03T08:57:06.230Z,5.35
2022-09-03T08:59:33.795Z,5.18
2022-09-03T09:02:14.114Z,4.90
2022-09-03T09:04:56.233Z,4.65
2022-09-03T09:07:31.925Z,4.60
2022-09-03T09:10:18.702Z,4.95
2022-09-03T09:13:04.640Z,4.90
2022-09-03T09:15:37.703Z,4.90
2022-09-03T09:18:16.808Z,4.90
2022-09-03T09:20:50.216Z,5.18
2022-09-03T09:23:42.854Z,4.60
2022-09-03T09:26:19.438Z,4.72
2022-09-03T09:28:48.314Z,4.70
2022-09-03T09:31:21.778Z,5.05
2022-09-03T09:33:49.370Z,4.80
2022-09-03T09:36:19.602Z,4.65
2022-09-03T09:38:49.044Z,4.50
2022-09-03T09:41:19.862Z,5.50
2022-09-03T09:43:48.321Z,4.90
2022-09-03T09:46:22.023Z,4.75
2022-09-03T09:48:58.149Z,5.05
2022-09-03T09:51:34.146Z,4.50
2022-09-03T09:54:28.194Z,4.80
2022-09-03T09:57:06.783Z,6.88
2022-09-03T09:59:35.381Z,5.13
2022-09-03T10:02:29.135Z,5.13
2022-09-03T10:05:13.769Z,4.60
2022-09-03T10:07:41.221Z,4.85
2022-09-03T10:10:16.613Z,5.30
2022-09-03T10:13:06.064Z,4.30
2022-09-03T10:15:40.927Z,4.95
2022-09-03T10:18:32.413Z,4.53
2022-09-03T10:23:54.517Z,4.25
2022-09-03T10:26:29.309Z,4.55
2022-09-03T10:29:05.904Z,5.05
2022-09-03T10:31:57.291Z,4.95
2022-09-03T10:34:48.149Z,4.43
2022-09-03T10:37:41.276Z,4.55
2022-09-03T10:40:39.276Z,4.22
2022-09-03T10:43:32.755Z,4.57
2022-09-03T10:46:01.572Z,4.72
2022-09-03T10:49:11.082Z,4.50
2022-09-03T10:52:11.274Z,4.30
2022-09-03T10:55:12.346Z,4.70
2022-09-03T10:58:08.270Z,4.25
2022-09-03T11:00:55.033Z,4.07
2022-09-03T11:04:00.265Z,4.28
2022-09-03T11:06:43.931Z,3.83
2022-09-03T11:09:18.030Z,3.80
2022-09-03T11:12:08.626Z,3.75
2022-09-03T11:14:43.070Z,4.00
2022-09-03T11:17:34.410Z,3.75
2022-09-03T11:20:11.893Z,4.10
2022-09-03T11:22:39.844Z,3.88
2022-09-03T11:25:08.907Z,6.72
2022-09-03T11:27:42.429Z,3.92
2022-09-03T11:30:14.807Z,6.30
2022-09-03T11:32:52.888Z,4.50
2022-09-03T11:35:31.804Z,4.85
2022-09-03T11:38:03.339Z,20.45
2022-09-03T11:40:36.579Z,43.88
2022-09-03T11:43:13.114Z,27.20
2022-09-03T11:45:40.812Z,4.50
2022-09-03T11:48:46.517Z,4.13
2022-09-03T11:51:19.825Z,3.47
2022-09-03T11:54:23.978Z,3.65
2022-09-03T11:56:52.155Z,3.40
2022-09-03T11:59:26.606Z,3.97
2022-09-03T12:02:02.304Z,3.65
2022-09-03T12:04:50.501Z,3.60
2022-09-03T12:07:48.544Z,3.20
2022-09-03T12:10:44.428Z,3.33
2022-09-03T12:13:30.392Z,3.40
2022-09-03T12:16:22.168Z,3.47
2022-09-03T12:18:53.224Z,3.53
2022-09-03T12:21:24.178Z,3.45
2022-09-03T12:23:57.987Z,3.88
2022-09-03T12:26:27.674Z,3.70
2022-09-03T12:28:57.886Z,3.90
2022-09-03T12:31:35.193Z,3.35
2022-09-03T12:34:10.877Z,3.83
2022-09-03T12:36:44.063Z,3.40
2022-09-03T12:44:43.361Z,3.10
2022-09-03T12:47:37.335Z,3.67
2022-09-03T12:50:23.956Z,3.42
2022-09-03T12:52:51.221Z,3.75
2022-09-03T12:55:33.915Z,3.70
2022-09-03T12:58:13.853Z,3.47
2022-09-03T13:01:05.166Z,3.25
2022-09-03T13:03:50.614Z,3.78
2022-09-03T13:06:23.535Z,3.50
2022-09-03T13:09:04.829Z,3.63
2022-09-03T13:11:40.001Z,3.55
2022-09-03T13:14:11.409Z,3.78
2022-09-03T13:16:39.273Z,3.35
2022-09-03T13:19:21.809Z,3.65
2022-09-03T13:21:49.183Z,3.35
2022-09-03T13:24:53.644Z,3.47
2022-09-03T13:27:37.100Z,3.30
2022-09-03T13:30:17.374Z,3.40
2022-09-03T13:33:17.669Z,3.30
2022-09-03T13:36:11.416Z,2.95
2022-09-03T13:38:56.587Z,3.30
2022-09-03T13:42:25.478Z,2.85
2022-09-03T13:45:18.912Z,3.40
2022-09-03T13:48:25.514Z,3.45
2022-09-03T13:51:14.096Z,3.50
2022-09-03T13:54:36.562Z,7.53
2022-09-03T13:57:11.826Z,2.92
2022-09-03T14:00:08.396Z,3.28
2022-09-03T14:03:16.864Z,4.10
2022-09-03T14:06:15.419Z,3.60
2022-09-03T14:09:05.576Z,3.65
2022-09-03T14:12:16.625Z,4.55
2022-09-03T14:15:31.823Z,3.33
2022-09-03T14:18:16.386Z,2.92
2022-09-03T14:21:02.891Z,3.10
2022-09-03T14:24:17.943Z,2.80
2022-09-03T14:26:55.052Z,3.00
2022-09-03T14:29:33.701Z,3.30
2022-09-03T14:32:11.781Z,3.30
2022-09-03T14:34:54.767Z,2.78
2022-09-03T14:38:03.561Z,3.08
2022-09-03T14:40:45.174Z,3.47
2022-09-03T14:43:39.866Z,3.33
2022-09-03T14:46:18.125Z,3.30
2022-09-03T14:49:04.233Z,3.35
2022-09-03T14:52:25.720Z,3.38
2022-09-03T14:55:26.407Z,3.40
2022-09-03T14:58:34.843Z,3.55
2022-09-03T15:01:18.441Z,3.80
2022-09-03T15:04:35.938Z,3.60
2022-09-03T15:07:06.292Z,3.25
2022-09-03T15:09:48.527Z,3.17
2022-09-03T15:12:40.739Z,4.38
2022-09-03T15:15:19.958Z,3.40
2022-09-03T15:18:02.241Z,3.78
2022-09-03T15:20:48.863Z,4.05
2022-09-03T15:23:34.759Z,4.65
2022-09-03T15:26:33.272Z,3.38
2022-09-03T15:29:30.367Z,3.60
2022-09-03T15:32:17.060Z,3.83
2022-09-03T15:34:50.365Z,3.70
2022-09-03T15:37:40.662Z,4.00
2022-09-03T15:40:12.249Z,3.72
2022-09-03T15:42:44.581Z,6.43
2022-09-03T15:45:25.862Z,4.00
2022-09-03T15:47:56.860Z,3.80
2022-09-03T15:50:33.638Z,4.40
2022-09-03T15:53:34.655Z,4.70
2022-09-03T15:56:23.247Z,4.72
2022-09-03T15:59:03.458Z,4.95
2022-09-03T16:01:41.649Z,3.80
2022-09-03T16:04:21.286Z,3.38
2022-09-03T16:07:09.254Z,3.88
2022-09-03T16:10:24.374Z,4.10
2022-09-03T16:13:09.107Z,4.07
2022-09-03T16:16:18.270Z,4.40
2022-09-03T16:19:05.122Z,5.95
2022-09-03T16:22:01.075Z,16.40
2022-09-03T16:25:04.311Z,6.22
2022-09-03T16:27:43.632Z,4.57
2022-09-03T16:30:14.577Z,5.38
2022-09-03T16:33:19.190Z,4.57
2022-09-03T16:36:51.403Z,5.47
2022-09-03T16:39:40.319Z,4.25
2022-09-03T16:42:33.217Z,4.10
2022-09-03T16:45:13.058Z,4.20
2022-09-03T16:48:05.859Z,4.28
2022-09-03T16:51:10.866Z,4.60
2022-09-03T16:54:09.354Z,4.93
2022-09-03T16:56:47.728Z,4.35
2022-09-03T16:59:53.378Z,4.22
2022-09-03T17:02:39.934Z,4.53
2022-09-03T17:05:21.203Z,4.30
2022-09-03T17:07:51.598Z,7.50
2022-09-03T17:10:49.117Z,4.95
2022-09-03T17:13:34.477Z,4.60
2022-09-03T17:16:43.169Z,5.38
2022-09-03T17:19:41.119Z,5.47
2022-09-03T17:22:45.649Z,5.60
2022-09-03T17:25:23.040Z,4.97
2022-09-03T17:28:02.599Z,4.72
2022-09-03T17:30:47.171Z,4.70
2022-09-03T17:33:45.867Z,5.60
2022-09-03T17:36:21.515Z,5.85
2022-09-03T17:39:07.815Z,5.32
2022-09-03T17:41:47.155Z,5.97
2022-09-03T17:44:22.027Z,5.63
2022-09-03T17:47:06.539Z,5.35
2022-09-03T17:49:45.009Z,6.25
2022-09-03T17:52:39.419Z,6.97
2022-09-03T17:55:28.006Z,7.40
2022-09-03T17:58:19.208Z,5.93
2022-09-03T18:00:55.550Z,6.18
2022-09-03T18:03:49.444Z,8.45
2022-09-03T18:06:24.510Z,15.95
2022-09-03T18:08:57.186Z,18.65
2022-09-03T18:11:42.058Z,62.38
2022-09-03T18:14:53.622Z,7.70
2022-09-03T18:17:56.069Z,5.85
2022-09-03T18:20:45.270Z,10.95
2022-09-03T18:23:52.411Z,6.38
2022-09-03T18:26:52.210Z,17.45
2022-09-03T18:29:56.911Z,13.73
2022-09-03T18:32:42.808Z,8.63
2022-09-03T18:35:29.423Z,28.30
2022-09-03T18:38:15.541Z,8.27
2022-09-03T18:41:35.840Z,10.80
2022-09-03T18:44:30.338Z,15.73
2022-09-03T18:48:01.445Z,22.98
2022-09-03T18:50:36.165Z,19.65
2022-09-03T18:53:31.519Z,34.72
2022-09-03T18:56:44.684Z,35.03
2022-09-03T18:59:50.459Z,11.27
2022-09-03T19:02:57.801Z,7.95
2022-09-03T19:06:25.807Z,9.52
2022-09-03T19:09:16.229Z,7.75
2022-09-03T19:12:31.795Z,7.90
2022-09-03T19:15:40.373Z,38.33
2022-09-03T19:19:05.586Z,28.42
2022-09-03T19:21:59.975Z,18.55
2022-09-03T19:24:49.273Z,18.05
2022-09-03T19:27:57.272Z,11.35
2022-09-03T19:31:01.199Z,58.83
2022-09-03T19:37:11.745Z,28.73
2022-09-03T19:39:57.584Z,16.42
2022-09-03T19:42:52.940Z,11.50
2022-09-03T19:46:07.650Z,45.85
2022-09-03T19:49:21.988Z,26.17
2022-09-03T19:52:38.182Z,8.63
2022-09-03T19:55:25.403Z,24.15
2022-09-03T19:58:41.528Z,24.27
2022-09-03T20:01:27.243Z,14.20
2022-09-03T20:04:17.989Z,7.90
2022-09-03T20:07:05.742Z,24.45
2022-09-03T20:09:56.925Z,11.50
2022-09-03T20:12:28.124Z,6.57
2022-09-03T20:14:55.520Z,31.50
2022-09-03T20:17:34.592Z,28.95
2022-09-03T20:20:46.253Z,23.42
2022-09-03T20:23:32.876Z,15.38
2022-09-03T20:26:20.482Z,21.55
2022-09-03T20:29:27.798Z,41.60
2022-09-03T20:32:22.183Z,21.40
2022-09-03T20:34:56.008Z,27.40
2022-09-03T20:37:42.512Z,46.17
2022-09-03T20:40:16.030Z,16.23
2022-09-03T20:42:46.426Z,13.55
2022-09-03T20:45:36.225Z,9.27
2022-09-03T20:48:07.273Z,7.13
2022-09-03T20:50:43.912Z,28.88
2022-09-03T20:53:54.589Z,17.73
2022-09-03T20:56:31.023Z,14.68
2022-09-03T20:59:17.040Z,9.77
2022-09-03T21:01:54.784Z,9.73
2022-09-03T21:04:29.848Z,11.93
2022-09-03T21:07:16.557Z,11.55
2022-09-03T21:10:07.354Z,10.38
2022-09-03T21:12:43.890Z,10.13
2022-09-03T21:15:26.890Z,9.07
2022-09-03T21:18:00.170Z,9.25
2022-09-03T21:21:10.443Z,8.93
2022-09-03T21:23:43.354Z,10.18
2022-09-03T21:26:23.550Z,12.05
2022-09-03T21:29:07.231Z,10.48
2022-09-03T21:32:08.364Z,7.93
2022-09-03T21:34:43.575Z,20.05
2022-09-03T21:37:14.355Z,32.30
2022-09-03T21:39:45.900Z,25.20
2022-09-03T21:44:40.379Z,12.73
2022-09-03T21:47:16.050Z,9.60
2022-09-03T21:50:11.966Z,7.22
2022-09-03T21:52:59.319Z,9.00
2022-09-03T21:55:42.122Z,8.65
2022-09-03T21:58:36.103Z,7.38
2022-09-03T22:01:20.337Z,8.20
2022-09-03T22:03:47.651Z,8.05
2022-09-03T22:06:25.740Z,11.10
2022-09-03T22:09:01.805Z,9.18
2022-09-03T22:11:38.910Z,9.73
2022-09-03T22:14:15.097Z,9.30
2022-09-03T22:16:47.721Z,7.68
2022-09-03T22:19:15.623Z,6.30
2022-09-03T22:21:59.968Z,6.88
2022-09-03T22:24:45.873Z,6.18
2022-09-03T22:27:22.639Z,7.15
2022-09-03T22:29:53.073Z,6.40
2022-09-03T22:32:25.849Z,7.40
2022-09-03T22:35:09.662Z,6.03
2022-09-03T22:37:57.102Z,5.50
2022-09-03T22:40:38.508Z,6.18
2022-09-03T22:43:20.710Z,6.25
2022-09-03T22:45:48.080Z,6.40
2022-09-03T22:48:28.595Z,6.45
2022-09-03T22:51:01.998Z,5.97
2022-09-03T22:54:19.700Z,6.13
2022-09-03T22:56:47.103Z,6.13
2022-09-03T22:59:28.866Z,6.03
2022-09-03T23:02:14.502Z,5.70
2022-09-03T23:05:07.325Z,6.60
2022-09-03T23:07:49.511Z,6.38
2022-09-03T23:10:29.354Z,5.88
2022-09-03T23:13:16.278Z,5.18
2022-09-03T23:15:46.476Z,5.90
2022-09-03T23:18:17.995Z,5.70
2022-09-03T23:23:36.733Z,6.07
2022-09-03T23:26:31.144Z,5.95
2022-09-03T23:29:23.770Z,5.90
2022-09-03T23:31:53.055Z,8.48
2022-09-03T23:34:21.065Z,13.80
2022-09-03T23:37:29.251Z,7.63
2022-09-03T23:40:02.012Z,6.63
2022-09-03T23:42:58.470Z,6.97
2022-09-03T23:45:46.147Z,6.22
2022-09-03T23:48:19.786Z,6.43
2022-09-03T23:50:53.467Z,6.57
2022-09-03T23:54:00.084Z,6.97
2022-09-03T23:56:57.814Z,6.90
